Portada
METAR-TAF:

METAR-TAF

Aeropuertos :

Angulema, Francia

latitud: 45-43-46N, longitud: 00-13-08E, altitud: 132 m

Observación

El informe se hizo hace 22 minutos, a las 08:00 UTC
Viento calma
Temperatura 6°C
Humedad 70%
Presión 1032 hPa
Visibilidad 10 km o más
sin nubes por debajo de 1500 m y sin presencia de cumulonimbus.

METAR: LFBU 220800Z AUTO 00000KT CAVOK 06/01 Q1032 NOSIG

Hora: 09:22 (08:22 UTC)

Pronóstico

El informe se hizo hace 3 horas y 22 minutos, a las 05:00 UTC
Pronóstico válido del 22 a las 06 UTC al 23 a las 06 UTC
Viento 3 kt con dirección variable
Visibilidad 10 km o más
sin nubes por debajo de 1500 m y sin presencia de cumulonimbus.
Evolucionando progresivamente
del 22 a las 11 UTC al 22 a las 13 UTC
Viento 7 kt del noreste
Probabilidad 40%
del 23 a las 04 UTC al 23 a las 06 UTC
Visibilidad: 4500 m
Cielo nuboso a una altura de 300 ft
neblina

TAF: LFBU 220500Z 2206/2306 VRB03KT CAVOK BECMG 2211/2213 05007KT PROB40 2304/2306 4500 BR BKN003

Observaciones y pronósticos meteorológicos de más de 4000 aeropuertos (mensajes METAR y TAF).

Los puntos amarillos y rojos representan las estaciones disponibles.

Ponga el ratón en el punto deseado para ver el nombre de la estación.

Haga clic para ver las observaciones y los pronósticos meteorológicos.

Para cambiar el mapa : haga clic en los botones verdes con una cruz de color negro para hacer un zoom, en el botón verde con un guión para alejar o en las flechas verdes para mapas adyacentes.


METAR-TAF: